Jackson Springs, North Carolina
Current Conditions -  °F | °C
As of 2:55 PM on Monday 22 Dec 2014 (Local Time) from KSOP Reporting Station
Overcast Overcast  
Wind Chill: 34°   Ceiling: 300
Heat Index: 39°   Visibility: 3mi
Dew Point: 36°   Wind: 8mph
Humidity: 87%   Direction: 20°NNE
Pressure: 30.03"   Gusts: NA
Location:  35.21°N, 79.63°W
Report Text: KSOP 221955Z AUTO 02007KT 3SM OVC003 04/02 A3003 RMK AO1
Loading
Personal Weather Stations






























Interactive Weather Map New forecast layout! Learn more

10-Day Weather Forecast

Advertisements
Track Severe Weather on mobile